createdAt,value
2022-12-17T00:01:52.770Z,-1.31
2022-12-17T00:04:38.966Z,-1.30
2022-12-17T00:07:23.997Z,-1.29
2022-12-17T00:10:09.196Z,-1.25
2022-12-17T00:12:56.336Z,-1.20
2022-12-17T00:15:41.655Z,-1.20
2022-12-17T00:18:28.179Z,-1.17
2022-12-17T00:21:15.189Z,-1.15
2022-12-17T00:24:00.493Z,-1.17
2022-12-17T00:26:45.666Z,-1.13
2022-12-17T00:29:30.939Z,-1.13
2022-12-17T00:32:16.802Z,-1.14
2022-12-17T00:35:02.182Z,-1.14
2022-12-17T00:37:47.594Z,-1.11
2022-12-17T00:40:32.961Z,-1.05
2022-12-17T00:43:29.921Z,-1.04
2022-12-17T00:46:16.055Z,-1.05
2022-12-17T00:49:01.238Z,-1.03
2022-12-17T00:51:46.766Z,-1.01
2022-12-17T00:54:31.885Z,-0.98
2022-12-17T00:57:17.451Z,-0.86
2022-12-17T01:00:02.447Z,-0.89
2022-12-17T01:02:47.734Z,-0.74
2022-12-17T01:05:42.315Z,-0.80
2022-12-17T01:08:32.431Z,-0.80
2022-12-17T01:11:27.182Z,-0.84
2022-12-17T01:14:12.914Z,-0.91
2022-12-17T01:16:57.854Z,-1.12
2022-12-17T01:19:42.966Z,-0.98
2022-12-17T01:22:28.701Z,-0.94
2022-12-17T01:25:13.532Z,-0.87
2022-12-17T01:27:58.717Z,-0.96
2022-12-17T01:30:45.206Z,-0.97
2022-12-17T01:33:30.257Z,-0.99
2022-12-17T01:36:17.042Z,-0.98
2022-12-17T01:39:02.000Z,-0.98
2022-12-17T01:41:47.392Z,-1.06
2022-12-17T01:44:57.787Z,-1.02
2022-12-17T01:47:48.646Z,-1.09
2022-12-17T01:50:36.079Z,-1.24
2022-12-17T01:53:24.705Z,-1.20
2022-12-17T01:56:11.098Z,-1.24
2022-12-17T01:58:57.832Z,-1.18
2022-12-17T02:01:42.844Z,-1.20
2022-12-17T02:04:28.678Z,-1.10
2022-12-17T02:07:31.296Z,-1.13
2022-12-17T02:10:44.799Z,-1.12
2022-12-17T02:13:37.425Z,-1.09
2022-12-17T02:16:29.100Z,-1.05
2022-12-17T02:19:20.784Z,-1.15
2022-12-17T02:22:11.558Z,-1.11
2022-12-17T02:25:18.001Z,-1.17
2022-12-17T02:28:03.502Z,-1.23
2022-12-17T02:30:50.335Z,-1.17
2022-12-17T02:33:36.350Z,-1.12
2022-12-17T02:36:24.828Z,-1.20
2022-12-17T02:39:10.659Z,-1.24
2022-12-17T02:42:06.008Z,-1.32
2022-12-17T02:44:56.115Z,-1.29
2022-12-17T02:47:43.007Z,-1.33
2022-12-17T02:50:29.372Z,-1.25
2022-12-17T02:53:18.446Z,-1.28
2022-12-17T02:56:03.859Z,-1.26
2022-12-17T02:58:51.670Z,-1.20
2022-12-17T03:01:37.077Z,-1.20
2022-12-17T03:04:22.935Z,-1.25
2022-12-17T03:07:07.968Z,-1.28
2022-12-17T03:09:53.123Z,-1.30
2022-12-17T03:12:39.579Z,-1.36
2022-12-17T03:15:24.994Z,-1.67
2022-12-17T03:18:09.936Z,-1.65
2022-12-17T03:20:54.919Z,-1.52
2022-12-17T03:23:39.860Z,-1.50
2022-12-17T03:26:25.412Z,-1.42
2022-12-17T03:29:10.422Z,-1.60
2022-12-17T03:31:55.376Z,-1.49
2022-12-17T03:34:40.255Z,-1.47
2022-12-17T03:37:25.467Z,-1.54
2022-12-17T03:40:10.387Z,-1.43
2022-12-17T03:42:55.206Z,-1.46
2022-12-17T03:45:40.161Z,-1.49
2022-12-17T03:48:27.878Z,-1.51
2022-12-17T03:51:13.381Z,-1.46
2022-12-17T03:53:58.852Z,-1.43
2022-12-17T03:56:44.188Z,-1.35
2022-12-17T03:59:30.245Z,-1.38
2022-12-17T04:02:15.834Z,-1.40
2022-12-17T04:05:00.867Z,-1.50
2022-12-17T04:07:46.253Z,-1.39
2022-12-17T04:10:31.560Z,-1.40
2022-12-17T04:13:16.545Z,-1.40
2022-12-17T04:16:14.405Z,-1.41
2022-12-17T04:18:59.570Z,-1.36
2022-12-17T04:21:44.456Z,-1.40
2022-12-17T04:24:29.425Z,-1.48
2022-12-17T04:27:14.287Z,-1.60
2022-12-17T04:29:59.227Z,-1.59
2022-12-17T04:32:44.046Z,-1.49
2022-12-17T04:35:28.953Z,-1.45
2022-12-17T04:38:13.775Z,-1.43
2022-12-17T04:40:58.774Z,-1.38
2022-12-17T04:43:43.738Z,-1.42
2022-12-17T04:46:28.625Z,-1.38
2022-12-17T04:49:16.535Z,-1.43
2022-12-17T04:52:01.500Z,-1.36
2022-12-17T04:54:46.322Z,-1.49
2022-12-17T04:57:31.305Z,-1.45
2022-12-17T05:00:16.098Z,-1.52
2022-12-17T05:03:01.420Z,-1.45
2022-12-17T05:05:46.729Z,-1.38
2022-12-17T05:08:34.568Z,-1.31
2022-12-17T05:11:23.554Z,-1.37
2022-12-17T05:14:08.473Z,-1.37
2022-12-17T05:17:08.887Z,-1.35
2022-12-17T05:19:53.717Z,-1.24
2022-12-17T05:22:38.627Z,-1.28
2022-12-17T05:25:25.805Z,-1.24
2022-12-17T05:28:10.640Z,-1.24
2022-12-17T05:30:59.939Z,-1.37
2022-12-17T05:33:46.708Z,-1.26
2022-12-17T05:36:31.602Z,-1.26
2022-12-17T05:39:16.581Z,-1.21
2022-12-17T05:42:01.425Z,-1.21
2022-12-17T05:44:46.262Z,-1.26
2022-12-17T05:47:31.128Z,-1.30
2022-12-17T05:50:17.045Z,-1.35
2022-12-17T05:53:02.054Z,-1.36
2022-12-17T05:55:46.991Z,-1.33
2022-12-17T05:58:32.211Z,-1.54
2022-12-17T06:01:19.267Z,-1.37
2022-12-17T06:04:04.632Z,-1.34
2022-12-17T06:06:50.996Z,-1.30
2022-12-17T06:09:36.738Z,-1.23
2022-12-17T06:12:22.190Z,-1.40
2022-12-17T06:15:07.581Z,-1.39
2022-12-17T06:17:52.635Z,-1.33
2022-12-17T06:20:37.790Z,-1.32
2022-12-17T06:23:30.230Z,-1.34
2022-12-17T06:26:16.350Z,-1.31
2022-12-17T06:29:02.507Z,-1.32
2022-12-17T06:31:47.848Z,-1.29
2022-12-17T06:34:33.043Z,-1.19
2022-12-17T06:37:18.327Z,-1.19
2022-12-17T06:40:03.175Z,-1.18
2022-12-17T06:42:48.134Z,-1.06
2022-12-17T06:45:32.989Z,-1.13
2022-12-17T06:48:27.099Z,-1.17
2022-12-17T06:51:13.383Z,-1.25
2022-12-17T06:53:59.334Z,-1.26
2022-12-17T06:56:44.135Z,-1.22
2022-12-17T06:59:29.534Z,-1.17
2022-12-17T07:02:14.616Z,-1.27
2022-12-17T07:04:59.812Z,-1.25
2022-12-17T07:07:44.860Z,-1.21
2022-12-17T07:10:30.062Z,-1.28
2022-12-17T07:13:34.078Z,-1.27
2022-12-17T07:16:19.418Z,-1.36
2022-12-17T07:19:07.515Z,-1.41
2022-12-17T07:21:52.394Z,-1.44
2022-12-17T07:24:37.575Z,-1.33
2022-12-17T07:27:22.427Z,-1.23
2022-12-17T07:30:07.483Z,-1.26
2022-12-17T07:32:52.437Z,-1.20
2022-12-17T07:35:37.453Z,-1.27
2022-12-17T07:38:23.593Z,-1.25
2022-12-17T07:41:09.009Z,-1.22
2022-12-17T07:43:54.102Z,-1.20
2022-12-17T07:46:39.517Z,-1.21
2022-12-17T07:49:26.051Z,-1.30
2022-12-17T07:52:11.419Z,-1.29
2022-12-17T07:54:56.542Z,-1.35
2022-12-17T07:57:41.358Z,-1.40
2022-12-17T08:00:26.782Z,-1.39
2022-12-17T08:03:16.182Z,-1.38
2022-12-17T08:06:10.799Z,-1.38
2022-12-17T08:08:55.658Z,-1.38
2022-12-17T08:11:40.477Z,-1.35
2022-12-17T08:14:25.381Z,-1.26
2022-12-17T08:20:19.899Z,-1.28
2022-12-17T08:23:04.895Z,-1.30
2022-12-17T08:25:49.927Z,-1.29
2022-12-17T08:28:50.084Z,-1.24
2022-12-17T08:31:35.733Z,-1.30
2022-12-17T08:34:20.616Z,-1.49
2022-12-17T08:37:05.611Z,-1.46
2022-12-17T08:39:50.436Z,-1.32
2022-12-17T08:42:35.433Z,-1.15
2022-12-17T08:45:20.277Z,-1.09
2022-12-17T08:48:05.245Z,-1.21
2022-12-17T08:50:50.327Z,-1.21
2022-12-17T08:53:35.481Z,-1.58
2022-12-17T08:56:20.984Z,-1.41
2022-12-17T08:59:05.824Z,-1.21
2022-12-17T09:01:50.762Z,-1.22
2022-12-17T09:04:35.871Z,-1.20
2022-12-17T09:07:20.823Z,-1.23
2022-12-17T09:10:05.756Z,-1.17
2022-12-17T09:12:50.569Z,-1.08
2022-12-17T09:15:35.482Z,-1.06
2022-12-17T09:18:20.629Z,-1.16
2022-12-17T09:21:13.582Z,-1.14
2022-12-17T09:23:59.446Z,-1.11
2022-12-17T09:26:44.156Z,-1.19
2022-12-17T09:29:29.124Z,-1.16
2022-12-17T09:32:14.223Z,-1.20
2022-12-17T09:35:03.768Z,-1.25
2022-12-17T09:37:48.916Z,-1.19
2022-12-17T09:40:52.140Z,-1.24
2022-12-17T09:43:45.022Z,-1.22
2022-12-17T09:46:45.312Z,-1.26
2022-12-17T09:49:40.183Z,-1.53
2022-12-17T09:52:38.173Z,-1.43
2022-12-17T09:55:33.960Z,-1.52
2022-12-17T09:58:19.660Z,-1.50
2022-12-17T10:01:08.170Z,-1.54
2022-12-17T10:03:54.889Z,-1.57
2022-12-17T10:06:46.635Z,-1.45
2022-12-17T10:09:34.384Z,-1.31
2022-12-17T10:12:30.641Z,-1.30
2022-12-17T10:15:15.626Z,-1.23
2022-12-17T10:18:00.848Z,-1.27
2022-12-17T10:21:19.928Z,-1.27
2022-12-17T10:24:05.159Z,-1.29
2022-12-17T10:26:53.347Z,-1.46
2022-12-17T10:29:47.772Z,-1.44
2022-12-17T10:32:33.126Z,-1.44
2022-12-17T10:35:20.502Z,-1.56
2022-12-17T10:38:05.371Z,-1.40
2022-12-17T10:40:51.808Z,-1.63
2022-12-17T10:43:51.024Z,-1.76
2022-12-17T10:46:47.699Z,-1.65
2022-12-17T10:49:36.813Z,-1.51
2022-12-17T10:52:48.062Z,-1.49
2022-12-17T10:55:46.945Z,-1.50
2022-12-17T10:58:35.174Z,-1.41
2022-12-17T11:01:21.649Z,-1.31
2022-12-17T11:04:12.275Z,-1.36
2022-12-17T11:07:09.852Z,-1.47
2022-12-17T11:10:10.658Z,-1.54
2022-12-17T11:13:04.942Z,-1.49
2022-12-17T11:16:10.247Z,-1.59
2022-12-17T11:19:03.600Z,-1.50
2022-12-17T11:22:09.361Z,-1.41
2022-12-17T11:25:16.200Z,-1.46
2022-12-17T11:28:06.374Z,-1.32
2022-12-17T11:31:07.648Z,-1.41
2022-12-17T11:34:01.997Z,-1.39
2022-12-17T11:37:01.026Z,-1.50
2022-12-17T11:40:01.883Z,-1.49
2022-12-17T11:42:56.014Z,-1.55
2022-12-17T11:45:50.280Z,-1.58
2022-12-17T11:48:49.085Z,-1.57
2022-12-17T11:51:52.961Z,-1.70
2022-12-17T11:54:52.275Z,-1.75
2022-12-17T11:57:45.436Z,-1.56
2022-12-17T12:00:39.217Z,-1.43
2022-12-17T12:03:33.059Z,-1.46
2022-12-17T12:06:19.929Z,-1.53
2022-12-17T12:09:32.559Z,-1.53
2022-12-17T12:12:51.699Z,-1.51
2022-12-17T12:15:36.750Z,-1.51
2022-12-17T12:19:09.317Z,-1.55
2022-12-17T12:22:02.662Z,-1.48
2022-12-17T12:25:05.923Z,-1.49
2022-12-17T12:28:14.436Z,-1.50
2022-12-17T12:31:43.989Z,-1.70
2022-12-17T12:34:43.254Z,-1.39
2022-12-17T12:37:33.792Z,-1.47
2022-12-17T12:40:34.102Z,-1.57
2022-12-17T12:43:29.259Z,-1.68
2022-12-17T12:46:24.602Z,-1.76
2022-12-17T12:49:16.474Z,-1.66
2022-12-17T12:52:01.952Z,-1.65
2022-12-17T12:54:51.372Z,-1.71
2022-12-17T12:57:57.411Z,-1.72
2022-12-17T13:00:58.081Z,-1.76
2022-12-17T13:03:48.837Z,-1.67
2022-12-17T13:06:40.500Z,-1.69
2022-12-17T13:09:15.894Z,-1.64
2022-12-17T13:11:44.947Z,-1.78
2022-12-17T13:14:19.393Z,-1.77
2022-12-17T13:16:48.645Z,-1.62
2022-12-17T13:19:20.969Z,-1.60
2022-12-17T13:21:47.888Z,-1.61
2022-12-17T13:24:26.820Z,-1.49
2022-12-17T13:26:53.710Z,-1.57
2022-12-17T13:29:33.602Z,-1.63
2022-12-17T13:32:38.617Z,-1.63
2022-12-17T13:35:23.953Z,-1.60
2022-12-17T13:38:05.241Z,-1.55
2022-12-17T13:41:10.415Z,-1.63
2022-12-17T13:43:43.967Z,-1.55
2022-12-17T13:46:29.792Z,-1.78
2022-12-17T13:48:59.213Z,-1.87
2022-12-17T13:51:28.482Z,-1.64
2022-12-17T13:53:57.819Z,-1.68
2022-12-17T13:56:27.634Z,-1.62
2022-12-17T13:58:56.274Z,-1.69
2022-12-17T14:01:23.135Z,-1.63
2022-12-17T14:04:06.373Z,-1.59
2022-12-17T14:06:36.231Z,-1.54
2022-12-17T14:09:03.696Z,-1.59
2022-12-17T14:11:49.995Z,-1.47
2022-12-17T14:14:27.344Z,-1.59
2022-12-17T14:16:55.009Z,-1.56
2022-12-17T14:19:22.410Z,-1.55
2022-12-17T14:21:48.963Z,-1.59
2022-12-17T14:24:18.798Z,-1.55
2022-12-17T14:26:52.848Z,-1.40
2022-12-17T14:29:25.472Z,-1.49
2022-12-17T14:31:57.829Z,-1.46
2022-12-17T14:34:24.977Z,-1.42
2022-12-17T14:36:59.559Z,-1.46
2022-12-17T14:39:31.572Z,-1.41
2022-12-17T14:42:25.431Z,-1.47
2022-12-17T14:45:06.247Z,-1.59
2022-12-17T14:47:34.956Z,-1.54
2022-12-17T14:50:10.170Z,-1.46
2022-12-17T14:52:45.319Z,-1.54
2022-12-17T14:55:23.757Z,-1.62
2022-12-17T14:57:54.825Z,-1.60
2022-12-17T15:00:21.718Z,-1.60
2022-12-17T15:02:52.489Z,-1.82
2022-12-17T15:05:19.192Z,-1.78
2022-12-17T15:07:45.726Z,-1.74
2022-12-17T15:10:14.837Z,-1.80
2022-12-17T15:12:42.646Z,-1.98
2022-12-17T15:15:13.503Z,-2.05
2022-12-17T15:17:39.929Z,-1.98
2022-12-17T15:20:19.246Z,-2.02
2022-12-17T15:22:46.537Z,-2.02
2022-12-17T15:25:14.054Z,-1.96
2022-12-17T15:27:40.537Z,-1.92
2022-12-17T15:30:07.767Z,-1.78
2022-12-17T15:32:34.148Z,-2.00
2022-12-17T15:35:00.529Z,-2.03
2022-12-17T15:37:26.913Z,-2.16
2022-12-17T15:39:53.317Z,-2.19
2022-12-17T15:42:38.301Z,-2.23
2022-12-17T15:45:05.240Z,-2.19
2022-12-17T15:47:31.658Z,-2.23
2022-12-17T15:49:58.069Z,-2.26
2022-12-17T15:52:24.467Z,-2.27
2022-12-17T15:54:50.872Z,-2.10
2022-12-17T15:57:18.859Z,-2.04
2022-12-17T15:59:45.422Z,-1.98
2022-12-17T16:02:12.149Z,-2.11
2022-12-17T16:04:38.697Z,-2.12
2022-12-17T16:07:05.699Z,-2.03
2022-12-17T16:09:32.140Z,-1.74
2022-12-17T16:11:58.536Z,-1.93
2022-12-17T16:14:25.022Z,-1.85
2022-12-17T16:16:52.041Z,-1.85
2022-12-17T16:19:18.552Z,-1.80
2022-12-17T16:21:48.857Z,-1.75
2022-12-17T16:24:15.323Z,-1.83
2022-12-17T16:26:41.978Z,-1.86
2022-12-17T16:29:08.450Z,-1.98
2022-12-17T16:31:34.916Z,-1.91
2022-12-17T16:34:01.416Z,-2.08
2022-12-17T16:36:27.829Z,-2.12
2022-12-17T16:38:54.882Z,-2.05
2022-12-17T16:41:22.370Z,-2.12
2022-12-17T16:43:49.010Z,-2.05
2022-12-17T16:46:34.141Z,-1.99
2022-12-17T16:49:22.398Z,-1.84
2022-12-17T16:51:53.928Z,-1.90
2022-12-17T16:54:24.016Z,-1.85
2022-12-17T16:56:50.423Z,-2.10
2022-12-17T16:59:17.882Z,-2.12
2022-12-17T17:01:47.409Z,-2.10
2022-12-17T17:04:15.205Z,-2.13
2022-12-17T17:06:45.097Z,-2.09
2022-12-17T17:09:12.438Z,-2.37
2022-12-17T17:11:39.473Z,-2.27
2022-12-17T17:14:06.954Z,-2.45
2022-12-17T17:16:34.511Z,-2.40
2022-12-17T17:19:01.685Z,-2.60
2022-12-17T17:21:29.433Z,-2.42
2022-12-17T17:23:59.745Z,-2.40
2022-12-17T17:26:28.130Z,-2.37
2022-12-17T17:28:54.977Z,-2.27
2022-12-17T17:31:26.717Z,-2.41
2022-12-17T17:33:57.130Z,-2.47
2022-12-17T17:36:29.639Z,-2.29
2022-12-17T17:38:58.726Z,-2.27
2022-12-17T17:41:28.185Z,-2.21
2022-12-17T17:44:00.241Z,-2.20
2022-12-17T17:46:28.575Z,-2.20
2022-12-17T17:48:57.305Z,-2.14
2022-12-17T17:51:59.937Z,-2.16
2022-12-17T17:54:14.548Z,-2.19
2022-12-17T17:56:42.199Z,-2.20
2022-12-17T17:59:14.547Z,-2.21
2022-12-17T18:01:47.962Z,-2.26
2022-12-17T18:04:18.442Z,-2.14
2022-12-17T18:07:09.058Z,-2.16
2022-12-17T18:09:34.228Z,-2.18
2022-12-17T18:12:22.088Z,-2.22
2022-12-17T18:15:12.731Z,-2.40
2022-12-17T18:17:35.102Z,-2.57
2022-12-17T18:20:01.508Z,-2.39
2022-12-17T18:22:28.994Z,-2.28
2022-12-17T18:24:55.411Z,-2.27
2022-12-17T18:27:27.900Z,-2.41
2022-12-17T18:29:54.311Z,-2.49
2022-12-17T18:32:20.733Z,-2.58
2022-12-17T18:34:47.266Z,-2.66
2022-12-17T18:37:13.709Z,-2.53
2022-12-17T18:39:40.133Z,-2.76
2022-12-17T18:42:25.177Z,-2.91
2022-12-17T18:44:51.650Z,-2.84
2022-12-17T18:47:18.884Z,-2.82
2022-12-17T18:49:45.394Z,-2.88
2022-12-17T18:52:17.073Z,-2.77
2022-12-17T18:54:43.883Z,-2.62
2022-12-17T18:57:10.398Z,-2.55
2022-12-17T18:59:37.438Z,-2.57
2022-12-17T19:02:04.233Z,-2.60
2022-12-17T19:04:32.841Z,-2.43
2022-12-17T19:06:59.413Z,-2.38
2022-12-17T19:09:29.078Z,-2.50
2022-12-17T19:11:56.498Z,-2.48
2022-12-17T19:14:26.686Z,-2.56
2022-12-17T19:16:55.284Z,-2.53
2022-12-17T19:19:22.456Z,-2.54
2022-12-17T19:21:51.938Z,-2.53
2022-12-17T19:24:21.006Z,-2.69
2022-12-17T19:26:48.614Z,-2.85
2022-12-17T19:29:16.451Z,-3.00
2022-12-17T19:31:46.277Z,-2.89
2022-12-17T19:34:14.846Z,-2.91
2022-12-17T19:36:42.498Z,-2.89
2022-12-17T19:39:14.912Z,-2.91
2022-12-17T19:41:41.449Z,-3.01
2022-12-17T19:44:11.332Z,-2.97
2022-12-17T19:46:38.088Z,-3.01
2022-12-17T19:49:04.759Z,-3.26
2022-12-17T19:51:32.455Z,-3.29
2022-12-17T19:54:04.726Z,-3.20
2022-12-17T19:56:33.493Z,-3.05
2022-12-17T19:59:02.118Z,-3.11
2022-12-17T20:01:30.993Z,-3.21
2022-12-17T20:03:58.703Z,-3.08
2022-12-17T20:06:27.892Z,-3.15
2022-12-17T20:08:54.530Z,-3.04
2022-12-17T20:11:36.301Z,-3.03
2022-12-17T20:14:13.309Z,-3.00
2022-12-17T20:16:52.147Z,-2.97
2022-12-17T20:19:27.522Z,-3.01
2022-12-17T20:21:54.910Z,-2.92
2022-12-17T20:24:27.146Z,-2.92
2022-12-17T20:26:57.125Z,-2.94
2022-12-17T20:29:28.180Z,-3.06
2022-12-17T20:32:01.147Z,-2.87
2022-12-17T20:34:27.628Z,-3.01
2022-12-17T20:36:56.748Z,-3.02
2022-12-17T20:39:28.159Z,-2.98
2022-12-17T20:41:55.496Z,-2.95
2022-12-17T20:44:21.922Z,-2.95
2022-12-17T20:46:48.388Z,-2.85
2022-12-17T20:49:14.851Z,-2.88
2022-12-17T20:51:41.480Z,-2.79
2022-12-17T20:54:08.428Z,-2.77
2022-12-17T20:56:35.521Z,-2.84
2022-12-17T20:59:07.228Z,-2.81
2022-12-17T21:01:35.970Z,-2.91
2022-12-17T21:04:03.669Z,-2.93
2022-12-17T21:06:35.787Z,-3.04
2022-12-17T21:09:03.275Z,-3.04
2022-12-17T21:11:32.561Z,-3.02
2022-12-17T21:14:01.762Z,-2.97
2022-12-17T21:16:31.254Z,-3.15
2022-12-17T21:18:59.613Z,-3.09
2022-12-17T21:21:31.556Z,-3.21
2022-12-17T21:23:59.015Z,-3.09
2022-12-17T21:26:29.246Z,-3.19
2022-12-17T21:28:59.486Z,-3.11
2022-12-17T21:31:35.367Z,-3.20
2022-12-17T21:34:04.610Z,-3.19
2022-12-17T21:36:32.955Z,-3.26
2022-12-17T21:39:00.392Z,-3.35
2022-12-17T21:41:31.586Z,-3.38
2022-12-17T21:44:01.487Z,-3.41
2022-12-17T21:46:29.043Z,-3.47
2022-12-17T21:48:57.262Z,-3.48
2022-12-17T21:51:23.893Z,-3.44
2022-12-17T21:53:55.357Z,-3.43
2022-12-17T21:56:22.161Z,-3.53
2022-12-17T21:58:49.452Z,-3.49
2022-12-17T22:01:25.353Z,-3.41
2022-12-17T22:03:54.549Z,-3.44
2022-12-17T22:06:29.496Z,-3.40
2022-12-17T22:09:09.442Z,-3.55
2022-12-17T22:11:42.269Z,-3.79
2022-12-17T22:14:18.907Z,-3.71
2022-12-17T22:16:49.140Z,-3.65
2022-12-17T22:19:20.295Z,-3.91
2022-12-17T22:21:56.856Z,-3.79
2022-12-17T22:24:27.316Z,-3.65
2022-12-17T22:27:00.204Z,-3.61
2022-12-17T22:29:48.186Z,-3.76
2022-12-17T22:32:52.746Z,-3.93
2022-12-17T22:36:39.577Z,-4.08
2022-12-17T22:42:03.410Z,-4.04
2022-12-17T22:44:32.173Z,-4.08
2022-12-17T22:44:37.450Z,-4.15
2022-12-17T22:46:42.445Z,-3.96
2022-12-17T22:49:09.225Z,-3.87
2022-12-17T22:51:37.105Z,-3.94
2022-12-17T22:54:12.353Z,-3.81
2022-12-17T22:57:16.770Z,-3.67
2022-12-17T22:59:28.354Z,-3.73
2022-12-17T23:01:54.814Z,-3.75
2022-12-17T23:04:21.369Z,-3.79
2022-12-17T23:06:50.808Z,-3.71
2022-12-17T23:09:19.121Z,-3.72
2022-12-17T23:11:47.318Z,-3.70
2022-12-17T23:14:14.043Z,-3.65
2022-12-17T23:16:41.375Z,-3.72
2022-12-17T23:19:08.331Z,-3.71
2022-12-17T23:21:35.572Z,-3.77
2022-12-17T23:24:02.012Z,-3.76
2022-12-17T23:26:31.462Z,-3.77
2022-12-17T23:29:01.720Z,-3.94
2022-12-17T23:31:33.243Z,-3.90
2022-12-17T23:33:59.765Z,-3.78
2022-12-17T23:36:26.571Z,-3.85
2022-12-17T23:38:56.225Z,-3.85
2022-12-17T23:41:25.811Z,-3.85
2022-12-17T23:43:53.026Z,-3.85
2022-12-17T23:46:19.855Z,-3.96
2022-12-17T23:48:47.753Z,-4.01
2022-12-17T23:51:15.672Z,-4.18
2022-12-17T23:53:43.259Z,-4.07
2022-12-17T23:56:11.754Z,-4.06
2022-12-17T23:58:39.350Z,-4.17
